createdAt,value
2018-11-28T00:00:00.683Z,553.2
2018-11-28T00:01:03.118Z,553.2
2018-11-28T00:02:05.555Z,553.4
2018-11-28T00:03:07.693Z,553
2018-11-28T00:04:10.125Z,553
2018-11-28T00:05:12.566Z,552.9
2018-11-28T00:06:15.005Z,552.5
2018-11-28T00:07:17.437Z,552.9
2018-11-28T00:08:19.866Z,552.8
2018-11-28T00:09:22.033Z,552.9
2018-11-28T00:10:24.453Z,552.6
2018-11-28T00:11:26.616Z,552.6
2018-11-28T00:12:28.768Z,552.6
2018-11-28T00:13:31.197Z,552.6
2018-11-28T00:14:33.660Z,553
2018-11-28T00:15:36.103Z,552.8
2018-11-28T00:16:38.526Z,553.3
2018-11-28T00:17:40.965Z,553
2018-11-28T00:18:43.394Z,553.8
2018-11-28T00:19:45.835Z,553.2
2018-11-28T00:20:48.267Z,553.5
2018-11-28T00:21:50.426Z,553.5
2018-11-28T00:22:52.876Z,553.5
2018-11-28T00:23:55.294Z,553.5
2018-11-28T00:24:57.725Z,553.7
2018-11-28T00:26:00.859Z,553.6
2018-11-28T00:27:03.292Z,553.3
2018-11-28T00:28:05.724Z,553.9
2018-11-28T00:29:07.883Z,553.7
2018-11-28T00:30:10.318Z,553.7
2018-11-28T00:31:12.213Z,553.4
2018-11-28T00:32:15.798Z,553.7
2018-11-28T00:33:17.693Z,553.3
2018-11-28T00:34:20.133Z,553
2018-11-28T00:35:22.581Z,552.4
2018-11-28T00:36:25.032Z,552.9
2018-11-28T00:37:27.470Z,553.1
2018-11-28T00:38:29.895Z,553.1
2018-11-28T00:39:32.340Z,552.9
2018-11-28T00:40:34.485Z,552.5
2018-11-28T00:41:36.628Z,553.1
2018-11-28T00:42:39.071Z,552.8
2018-11-28T00:43:40.929Z,552.9
2018-11-28T00:44:43.345Z,552.7
2018-11-28T00:45:45.775Z,552.4
2018-11-28T00:46:47.925Z,552.7
2018-11-28T00:47:50.364Z,552.4
2018-11-28T00:48:52.241Z,552.2
2018-11-28T00:49:54.411Z,552.6
2018-11-28T00:50:56.851Z,552.4
2018-11-28T00:51:58.728Z,552.3
2018-11-28T00:53:01.165Z,552.4
2018-11-28T00:54:03.606Z,552.3
2018-11-28T00:55:05.781Z,552.5
2018-11-28T00:56:07.668Z,552.7
2018-11-28T00:57:10.097Z,552
2018-11-28T00:58:12.526Z,551.9
2018-11-28T00:59:15.558Z,552
2018-11-28T01:00:18.019Z,552.1
2018-11-28T01:01:20.426Z,552
2018-11-28T01:02:22.875Z,552
2018-11-28T01:03:25.310Z,552.1
2018-11-28T01:04:27.754Z,552.2
2018-11-28T01:05:30.194Z,551.9
2018-11-28T01:06:32.623Z,551.8
2018-11-28T01:07:35.051Z,551.6
2018-11-28T01:08:37.202Z,551.9
2018-11-28T01:09:39.379Z,552.2
2018-11-28T01:10:41.267Z,551.9
2018-11-28T01:11:43.694Z,551.7
2018-11-28T01:12:45.594Z,551.6
2018-11-28T01:13:48.031Z,551.4
2018-11-28T01:14:50.451Z,550.9
2018-11-28T01:15:52.876Z,550.8
2018-11-28T01:16:55.034Z,550.5
2018-11-28T01:17:57.459Z,550.6
2018-11-28T01:18:59.893Z,550.9
2018-11-28T01:20:02.325Z,550.6
2018-11-28T01:21:04.747Z,551
2018-11-28T01:22:07.209Z,551
2018-11-28T01:23:09.629Z,550.6
2018-11-28T01:24:12.063Z,550.9
2018-11-28T01:25:14.511Z,551
2018-11-28T01:26:16.947Z,551.1
2018-11-28T01:27:19.414Z,551.1
2018-11-28T01:28:21.840Z,551.2
2018-11-28T01:29:23.992Z,551.2
2018-11-28T01:30:26.155Z,551.1
2018-11-28T01:31:28.571Z,551.3
2018-11-28T01:32:30.993Z,551.1
2018-11-28T01:33:33.406Z,551.5
2018-11-28T01:34:35.838Z,551.1
2018-11-28T01:35:38.271Z,550.8
2018-11-28T01:36:40.417Z,550.7
2018-11-28T01:37:42.846Z,550.5
2018-11-28T01:38:45.017Z,550.5
2018-11-28T01:39:47.440Z,550.3
2018-11-28T01:40:49.339Z,550.4
2018-11-28T01:41:51.777Z,550.3
2018-11-28T01:42:54.195Z,550.2
2018-11-28T01:43:56.620Z,549.8
2018-11-28T01:44:58.755Z,549.9
2018-11-28T01:46:01.182Z,550.2
2018-11-28T01:47:03.326Z,550
2018-11-28T01:48:05.759Z,550
2018-11-28T01:49:08.175Z,550.2
2018-11-28T01:50:10.612Z,549.7
2018-11-28T01:51:13.050Z,550.1
2018-11-28T01:52:15.206Z,550.3
2018-11-28T01:53:17.125Z,549.5
2018-11-28T01:54:19.535Z,549.6
2018-11-28T01:55:21.957Z,549.7
2018-11-28T01:56:24.393Z,549.6
2018-11-28T01:57:26.835Z,549.7
2018-11-28T01:58:28.984Z,549.6
2018-11-28T01:59:31.405Z,549.9
2018-11-28T02:00:33.566Z,550.1
2018-11-28T02:01:35.708Z,550.1
2018-11-28T02:02:38.139Z,550.6
2018-11-28T02:03:40.300Z,550.1
2018-11-28T02:04:42.455Z,550.2
2018-11-28T02:05:44.899Z,549.9
2018-11-28T02:06:47.329Z,550.1
2018-11-28T02:07:49.459Z,550.2
2018-11-28T02:08:51.901Z,550.5
2018-11-28T02:09:54.342Z,550.1
2018-11-28T02:10:56.776Z,550.8
2018-11-28T02:11:58.918Z,550.4
2018-11-28T02:13:01.347Z,550.8
2018-11-28T02:14:03.775Z,550.8
2018-11-28T02:15:05.936Z,550.6
2018-11-28T02:16:07.566Z,550.4
2018-11-28T02:17:09.724Z,550.3
2018-11-28T02:18:12.181Z,550.3
2018-11-28T02:19:14.607Z,550.7
2018-11-28T02:20:17.036Z,550.5
2018-11-28T02:21:18.935Z,550.3
2018-11-28T02:22:21.074Z,550.6
2018-11-28T02:23:23.507Z,550.4
2018-11-28T02:24:25.394Z,550.2
2018-11-28T02:25:27.844Z,550.1
2018-11-28T02:26:30.039Z,549.9
2018-11-28T02:27:32.196Z,550
2018-11-28T02:28:34.634Z,549.5
2018-11-28T02:29:37.076Z,549.5
2018-11-28T02:30:39.507Z,549.4
2018-11-28T02:31:41.933Z,549.5
2018-11-28T02:32:44.390Z,549.5
2018-11-28T02:33:46.540Z,549.4
2018-11-28T02:34:48.694Z,549
2018-11-28T02:35:50.582Z,549.2
2018-11-28T02:36:52.822Z,548.9
2018-11-28T02:37:55.239Z,549.2
2018-11-28T02:38:57.669Z,549.5
2018-11-28T02:39:59.837Z,549.3
2018-11-28T02:41:02.263Z,549.1
2018-11-28T02:42:04.695Z,548.8
2018-11-28T02:43:06.841Z,548.7
2018-11-28T02:44:09.033Z,548.5
2018-11-28T02:45:11.473Z,548.3
2018-11-28T02:46:13.897Z,548.3
2018-11-28T02:47:16.076Z,547.9
2018-11-28T02:48:18.218Z,548.3
2018-11-28T02:49:20.396Z,548.4
2018-11-28T02:50:22.816Z,548.3
2018-11-28T02:51:25.256Z,548.7
2018-11-28T02:52:27.393Z,548
2018-11-28T02:53:29.820Z,548.4
2018-11-28T02:54:32.275Z,548.6
2018-11-28T02:55:34.780Z,548.3
2018-11-28T02:56:36.649Z,548.2
2018-11-28T02:57:38.524Z,547.9
2018-11-28T02:58:40.957Z,548.2
2018-11-28T02:59:43.122Z,548.4
2018-11-28T03:00:45.030Z,548.2
2018-11-28T03:01:47.464Z,548.1
2018-11-28T03:02:49.625Z,547.8
2018-11-28T03:03:51.510Z,547.8
2018-11-28T03:04:53.677Z,547.9
2018-11-28T03:05:55.831Z,548.1
2018-11-28T03:06:57.986Z,547.8
2018-11-28T03:08:00.149Z,547.9
2018-11-28T03:09:02.021Z,547.8
2018-11-28T03:10:04.152Z,547.8
2018-11-28T03:11:06.576Z,547.4
2018-11-28T03:12:09.016Z,547.4
2018-11-28T03:13:11.446Z,547.6
2018-11-28T03:14:13.599Z,547.5
2018-11-28T03:15:16.030Z,547.1
2018-11-28T03:16:18.464Z,546.8
2018-11-28T03:17:20.322Z,547
2018-11-28T03:18:22.456Z,547
2018-11-28T03:19:24.892Z,546.9
2018-11-28T03:20:27.324Z,547.1
2018-11-28T03:21:29.487Z,547.2
2018-11-28T03:22:30.820Z,547.5
2018-11-28T03:23:33.242Z,547.7
2018-11-28T03:24:35.661Z,547.2
2018-11-28T03:25:37.827Z,547.3
2018-11-28T03:26:39.717Z,547
2018-11-28T03:27:42.148Z,547
2018-11-28T03:28:44.575Z,546.9
2018-11-28T03:29:46.760Z,546.8
2018-11-28T03:30:49.184Z,546.7
2018-11-28T03:31:51.607Z,546.5
2018-11-28T03:32:54.246Z,546.8
2018-11-28T03:33:56.668Z,546.8
2018-11-28T03:34:58.817Z,547
2018-11-28T03:36:01.247Z,547
2018-11-28T03:37:03.675Z,547
2018-11-28T03:38:05.841Z,546.7
2018-11-28T03:39:08.277Z,546.8
2018-11-28T03:40:10.441Z,546.6
2018-11-28T03:41:12.868Z,546.7
2018-11-28T03:42:15.292Z,546.5
2018-11-28T03:43:17.460Z,546.8
2018-11-28T03:44:19.884Z,546.3
2018-11-28T03:45:22.020Z,546.8
2018-11-28T03:46:24.194Z,546.3
2018-11-28T03:47:26.617Z,546.6
2018-11-28T03:48:28.497Z,546
2018-11-28T03:49:30.655Z,546.2
2018-11-28T03:50:33.069Z,545.9
2018-11-28T03:51:35.495Z,546
2018-11-28T03:52:37.343Z,545.9
2018-11-28T03:53:39.195Z,545.5
2018-11-28T03:54:41.347Z,545.4
2018-11-28T03:55:43.785Z,545.5
2018-11-28T03:56:46.198Z,545.1
2018-11-28T03:57:48.658Z,545.2
2018-11-28T03:58:50.803Z,545
2018-11-28T03:59:52.970Z,545.1
2018-11-28T04:00:55.395Z,545.1
2018-11-28T04:01:57.819Z,545.2
2018-11-28T04:02:59.976Z,544.8
2018-11-28T04:04:02.397Z,545.1
2018-11-28T04:05:04.827Z,544.7
2018-11-28T04:06:07.286Z,544.5
2018-11-28T04:07:09.694Z,544.9
2018-11-28T04:08:11.845Z,544.7
2018-11-28T04:09:14.003Z,544.9
2018-11-28T04:10:16.438Z,545.2
2018-11-28T04:11:18.885Z,545.5
2018-11-28T04:12:21.308Z,545.9
2018-11-28T04:13:23.752Z,545.4
2018-11-28T04:14:25.907Z,546.1
2018-11-28T04:15:28.043Z,545.7
2018-11-28T04:16:30.465Z,545.6
2018-11-28T04:17:32.624Z,545.6
2018-11-28T04:18:35.050Z,545.8
2018-11-28T04:19:37.208Z,545.8
2018-11-28T04:20:39.337Z,545.9
2018-11-28T04:21:41.758Z,545.8
2018-11-28T04:22:44.189Z,546.1
2018-11-28T04:23:46.343Z,546.3
2018-11-28T04:24:48.516Z,545.9
2018-11-28T04:25:50.947Z,546.2
2018-11-28T04:26:53.273Z,545.6
2018-11-28T04:27:55.707Z,546.2
2018-11-28T04:28:58.138Z,545.7
2018-11-28T04:30:00.562Z,545.8
2018-11-28T04:31:02.981Z,546
2018-11-28T04:32:05.141Z,546
2018-11-28T04:33:07.269Z,545.8
2018-11-28T04:34:09.697Z,545.4
2018-11-28T04:35:11.577Z,545.5
2018-11-28T04:36:13.486Z,545.8
2018-11-28T04:37:15.949Z,545.6
2018-11-28T04:38:18.102Z,546
2018-11-28T04:39:20.258Z,545.6
2018-11-28T04:40:22.687Z,545.8
2018-11-28T04:41:25.120Z,545.8
2018-11-28T04:42:27.547Z,545.7
2018-11-28T04:43:29.969Z,545.5
2018-11-28T04:44:32.412Z,545.5
2018-11-28T04:45:34.840Z,545.3
2018-11-28T04:46:37.517Z,545.4
2018-11-28T04:47:39.723Z,545.2
2018-11-28T04:48:42.208Z,545.1
2018-11-28T04:49:44.377Z,545.1
2018-11-28T04:50:46.531Z,544.8
2018-11-28T04:51:48.954Z,544.9
2018-11-28T04:52:51.422Z,544.8
2018-11-28T04:53:53.301Z,545.2
2018-11-28T04:54:55.743Z,545.4
2018-11-28T04:55:58.167Z,544.9
2018-11-28T04:57:00.325Z,545.2
2018-11-28T04:58:02.484Z,545.2
2018-11-28T04:59:04.938Z,545.2
2018-11-28T05:00:07.098Z,545.1
2018-11-28T05:01:09.261Z,544.4
2018-11-28T05:02:11.136Z,544.5
2018-11-28T05:03:13.319Z,544.9
2018-11-28T05:04:15.748Z,544.7
2018-11-28T05:05:18.200Z,545
2018-11-28T05:06:20.358Z,545.1
2018-11-28T05:07:22.793Z,545
2018-11-28T05:08:24.927Z,545.1
2018-11-28T05:09:27.076Z,544.9
2018-11-28T05:10:29.575Z,545.1
2018-11-28T05:11:32.022Z,545.1
2018-11-28T05:12:34.151Z,544.8
2018-11-28T05:13:36.592Z,545.1
2018-11-28T05:14:39.026Z,544.8
2018-11-28T05:15:41.451Z,545
2018-11-28T05:16:43.883Z,545.1
2018-11-28T05:17:46.327Z,545
2018-11-28T05:18:48.758Z,545.2
2018-11-28T05:19:50.946Z,545.4
2018-11-28T05:20:53.375Z,545
2018-11-28T05:21:55.810Z,545.2
2018-11-28T05:22:58.243Z,544.8
2018-11-28T05:24:00.378Z,544.5
2018-11-28T05:25:02.529Z,544.7
2018-11-28T05:26:04.679Z,544.5
2018-11-28T05:27:07.113Z,544.8
2018-11-28T05:28:09.532Z,544.6
2018-11-28T05:29:11.958Z,544.8
2018-11-28T05:30:14.166Z,544.8
2018-11-28T05:31:16.329Z,544.9
2018-11-28T05:32:18.747Z,544.6
2018-11-28T05:33:21.182Z,544.2
2018-11-28T05:34:23.344Z,544.1
2018-11-28T05:35:25.526Z,544.3
2018-11-28T05:36:27.449Z,543.9
2018-11-28T05:37:29.341Z,544.1
2018-11-28T05:38:31.489Z,544.2
2018-11-28T05:39:33.634Z,543.8
2018-11-28T05:40:36.099Z,544
2018-11-28T05:41:37.993Z,543.5
2018-11-28T05:42:40.170Z,543.5
2018-11-28T05:43:42.331Z,543.2
2018-11-28T05:44:44.784Z,543.1
2018-11-28T05:45:47.213Z,542.8
2018-11-28T05:46:49.387Z,542.8
2018-11-28T05:47:51.260Z,542.8
2018-11-28T05:48:53.687Z,543.2
2018-11-28T05:49:56.120Z,542.9
2018-11-28T05:50:58.308Z,543.1
2018-11-28T05:52:00.732Z,543.1
2018-11-28T05:53:03.173Z,542.8
2018-11-28T05:54:05.587Z,542.8
2018-11-28T05:55:08.014Z,543.1
2018-11-28T05:56:10.157Z,542.7
2018-11-28T05:57:12.585Z,542.8
2018-11-28T05:58:15.017Z,542.6
2018-11-28T05:59:17.302Z,543
2018-11-28T06:00:19.758Z,542.9
2018-11-28T06:01:21.934Z,542.4
2018-11-28T06:02:24.359Z,542.8
2018-11-28T06:03:26.538Z,542.7
2018-11-28T06:04:28.706Z,542.4
2018-11-28T06:05:31.138Z,542.3
2018-11-28T06:06:33.592Z,542.4
2018-11-28T06:07:35.764Z,542.5
2018-11-28T06:08:38.191Z,542.4
2018-11-28T06:09:40.628Z,542
2018-11-28T06:10:43.065Z,542.2
2018-11-28T06:11:45.483Z,542.1
2018-11-28T06:12:47.653Z,542.4
2018-11-28T06:13:49.916Z,542.5
2018-11-28T06:14:52.096Z,542.4
2018-11-28T06:15:54.529Z,541.8
2018-11-28T06:16:56.974Z,542.1
2018-11-28T06:17:59.111Z,541.8
2018-11-28T06:19:00.982Z,541.5
2018-11-28T06:20:03.414Z,541.5
2018-11-28T06:21:05.841Z,542
2018-11-28T06:22:08.270Z,541.7
2018-11-28T06:23:10.706Z,541.7
2018-11-28T06:24:13.138Z,541.7
2018-11-28T06:26:20.567Z,542
2018-11-28T06:27:22.722Z,541.8
2018-11-28T06:28:25.158Z,541.5
2018-11-28T06:29:27.588Z,541.7
2018-11-28T06:30:30.042Z,541.5
2018-11-28T06:31:32.487Z,541.8
2018-11-28T06:32:34.917Z,541.2
2018-11-28T06:33:37.352Z,541.2
2018-11-28T06:34:39.777Z,540.9
2018-11-28T06:35:41.955Z,540.6
2018-11-28T06:36:44.396Z,541
2018-11-28T06:37:46.303Z,540.8
2018-11-28T06:38:48.463Z,540.9
2018-11-28T06:39:50.625Z,540.6
2018-11-28T06:40:52.267Z,541.1
2018-11-28T06:41:54.424Z,540.8
2018-11-28T06:42:56.567Z,540.8
2018-11-28T06:43:58.988Z,540.7
2018-11-28T06:45:01.410Z,540.2
2018-11-28T06:46:03.873Z,540.3
2018-11-28T06:47:06.288Z,540.2
2018-11-28T06:48:08.469Z,539.8
2018-11-28T06:49:10.629Z,539.7
2018-11-28T06:50:13.053Z,539.6
2018-11-28T06:51:15.225Z,539.6
2018-11-28T06:52:17.393Z,539.3
2018-11-28T06:53:19.827Z,538.8
2018-11-28T06:54:21.982Z,538.7
2018-11-28T06:55:24.151Z,538.6
2018-11-28T06:56:26.279Z,538.1
2018-11-28T06:57:28.709Z,538.4
2018-11-28T06:58:30.355Z,538.2
2018-11-28T06:59:32.530Z,538.2
2018-11-28T07:00:34.460Z,537.7
2018-11-28T07:01:36.616Z,537.5
2018-11-28T07:02:38.756Z,537.4
2018-11-28T07:03:40.627Z,537.3
2018-11-28T07:04:43.067Z,537.2
2018-11-28T07:05:44.922Z,537.6
2018-11-28T07:06:46.786Z,537.3
2018-11-28T07:07:48.947Z,537.4
2018-11-28T07:08:51.379Z,537.1
2018-11-28T07:09:53.547Z,537.1
2018-11-28T07:10:55.977Z,537.3
2018-11-28T07:11:58.407Z,537.4
2018-11-28T07:13:00.276Z,537.4
2018-11-28T07:14:02.417Z,537.4
2018-11-28T07:15:04.838Z,537.3
2018-11-28T07:16:07.038Z,536.9
2018-11-28T07:17:09.479Z,536.9
2018-11-28T07:18:11.908Z,537.1
2018-11-28T07:19:13.769Z,537.1
2018-11-28T07:20:15.975Z,537.1
2018-11-28T07:21:18.111Z,537.3
2018-11-28T07:22:20.027Z,537
2018-11-28T07:23:22.190Z,536.2
2018-11-28T07:24:24.347Z,536.2
2018-11-28T07:25:26.521Z,536.5
2018-11-28T07:26:28.671Z,536.1
2018-11-28T07:27:31.098Z,536.1
2018-11-28T07:28:33.532Z,536.4
2018-11-28T07:29:35.966Z,536.4
2018-11-28T07:30:39.524Z,536.5
2018-11-28T07:31:41.420Z,536
2018-11-28T07:32:43.568Z,536.6
2018-11-28T07:33:45.729Z,536.5
2018-11-28T07:34:48.158Z,537.1
2018-11-28T07:35:50.306Z,536.6
2018-11-28T07:36:52.447Z,536.8
2018-11-28T07:37:54.586Z,536.6
2018-11-28T07:38:56.720Z,536.5
2018-11-28T07:39:59.156Z,536.5
2018-11-28T07:41:01.318Z,536.5
2018-11-28T07:42:03.227Z,536.4
2018-11-28T07:43:05.130Z,536.3
2018-11-28T07:44:07.562Z,536.1
2018-11-28T07:45:09.718Z,536.2
2018-11-28T07:46:12.186Z,536.3
2018-11-28T07:47:14.332Z,536.5
2018-11-28T07:48:16.496Z,536.2
2018-11-28T07:49:18.927Z,536.2
2018-11-28T07:50:21.101Z,536.1
2018-11-28T07:51:23.244Z,536.3
2018-11-28T07:52:25.676Z,535.5
2018-11-28T07:53:28.135Z,535.5
2018-11-28T07:54:30.279Z,536.1
2018-11-28T07:55:32.711Z,536.1
2018-11-28T07:56:34.866Z,536.1
2018-11-28T07:57:37.028Z,536.1
2018-11-28T07:58:39.458Z,536
2018-11-28T07:59:41.998Z,536.4
2018-11-28T08:00:44.157Z,536
2018-11-28T08:01:46.587Z,536.2
2018-11-28T08:02:49.013Z,535.6
2018-11-28T08:03:51.822Z,535.2
2018-11-28T08:04:54.329Z,535.3
2018-11-28T08:05:56.478Z,535
2018-11-28T08:06:58.909Z,535.1
2018-11-28T08:08:01.354Z,534.8
2018-11-28T08:09:03.779Z,534.8
2018-11-28T08:10:06.366Z,534.4
2018-11-28T08:11:08.828Z,534.6
2018-11-28T08:12:11.365Z,534.7
2018-11-28T08:13:13.538Z,534.6
2018-11-28T08:14:15.979Z,534.6
2018-11-28T08:15:18.411Z,534.6
2018-11-28T08:16:20.856Z,534.1
2018-11-28T08:17:23.028Z,534.2
2018-11-28T08:18:25.189Z,534.3
2018-11-28T08:19:27.614Z,534.5
2018-11-28T08:20:30.039Z,534.5
2018-11-28T08:21:32.488Z,534.4
2018-11-28T08:22:36.160Z,534.3
2018-11-28T08:23:38.703Z,534.4
2018-11-28T08:24:42.127Z,534.1
2018-11-28T08:25:46.103Z,534
2018-11-28T08:26:48.257Z,534.5
2018-11-28T08:27:50.401Z,534.4
2018-11-28T08:28:52.578Z,534.5
2018-11-28T08:29:55.000Z,534.4
2018-11-28T08:30:57.428Z,534.4
2018-11-28T08:31:59.595Z,534.8
2018-11-28T08:33:02.073Z,534.4
2018-11-28T08:34:04.235Z,534.6
2018-11-28T08:35:06.407Z,534.8
2018-11-28T08:36:08.836Z,534.6
2018-11-28T08:37:11.268Z,534.3
2018-11-28T08:38:13.709Z,534.6
2018-11-28T08:39:16.136Z,534.7
2018-11-28T08:40:18.558Z,534.4
2018-11-28T08:41:21.002Z,534.4
2018-11-28T08:42:23.439Z,534.5
2018-11-28T08:43:25.885Z,534.2
2018-11-28T08:44:29.521Z,534
2018-11-28T08:45:31.949Z,534.1
2018-11-28T08:46:34.375Z,534.3
2018-11-28T08:47:36.280Z,534.2
2018-11-28T08:48:38.718Z,534
2018-11-28T08:49:41.165Z,533.9
2018-11-28T08:50:43.030Z,533.7
2018-11-28T08:51:45.478Z,534.1
2018-11-28T08:52:47.364Z,533.9
2018-11-28T08:53:49.820Z,533.7
2018-11-28T08:54:52.280Z,533.6
2018-11-28T08:55:54.427Z,533.5
2018-11-28T08:56:56.598Z,533.3
2018-11-28T08:57:59.036Z,532.9
2018-11-28T08:59:00.911Z,532.7
2018-11-28T09:00:03.349Z,533
2018-11-28T09:01:05.819Z,533
2018-11-28T09:02:07.701Z,533
2018-11-28T09:03:10.142Z,533.1
2018-11-28T09:04:12.016Z,533.2
2018-11-28T09:05:14.185Z,533.2
2018-11-28T09:06:16.085Z,533.3
2018-11-28T09:07:18.525Z,533
2018-11-28T09:08:20.949Z,533.6
2018-11-28T09:09:23.128Z,533.3
2018-11-28T09:10:25.587Z,533.6
2018-11-28T09:11:28.004Z,533
2018-11-28T09:12:30.437Z,533.6
2018-11-28T09:13:32.869Z,533
2018-11-28T09:14:35.040Z,532.9
2018-11-28T09:15:37.459Z,532.6
2018-11-28T09:16:39.887Z,532.5
2018-11-28T09:17:42.064Z,532.7
2018-11-28T09:18:44.510Z,532.7
2018-11-28T09:19:46.946Z,532.5
2018-11-28T09:20:49.376Z,532.6
2018-11-28T09:21:51.526Z,532.2
2018-11-28T09:22:53.809Z,531.8
2018-11-28T09:23:55.987Z,531.8
2018-11-28T09:24:58.144Z,532
2018-11-28T09:26:00.570Z,532.3
2018-11-28T09:27:03.687Z,531.8
2018-11-28T09:28:06.232Z,531.6
2018-11-28T09:29:08.672Z,531.7
2018-11-28T09:30:11.112Z,531.8
2018-11-28T09:31:13.563Z,531.5
2018-11-28T09:32:16.032Z,531.3
2018-11-28T09:33:18.462Z,531.3
2018-11-28T09:34:20.896Z,531.8
2018-11-28T09:35:23.335Z,531.6
2018-11-28T09:36:25.492Z,531.5
2018-11-28T09:37:27.632Z,531.3
2018-11-28T09:38:30.088Z,531.2
2018-11-28T09:39:32.530Z,531.5
2018-11-28T09:40:34.967Z,531.4
2018-11-28T09:41:37.384Z,531.4
2018-11-28T09:42:39.537Z,531.4
2018-11-28T09:43:41.962Z,531
2018-11-28T09:44:44.108Z,531.2
2018-11-28T09:45:46.528Z,531.3
2018-11-28T09:46:48.955Z,531.2
2018-11-28T09:47:51.105Z,530.6
2018-11-28T09:48:53.539Z,530.9
2018-11-28T09:49:55.959Z,531
2018-11-28T09:50:58.396Z,531.1
2018-11-28T09:52:00.868Z,530.7
2018-11-28T09:53:03.288Z,531
2018-11-28T09:54:05.716Z,531.1
2018-11-28T09:55:08.230Z,531
2018-11-28T09:56:10.379Z,531.3
2018-11-28T09:57:12.800Z,531.5
2018-11-28T09:58:15.222Z,531.5
2018-11-28T09:59:17.638Z,531.6
2018-11-28T10:00:20.064Z,531.3
2018-11-28T10:01:22.496Z,531.5
2018-11-28T10:02:24.935Z,531.5
2018-11-28T10:03:27.088Z,531.4
2018-11-28T10:04:29.511Z,531.3
2018-11-28T10:05:31.674Z,531.2
2018-11-28T10:06:34.098Z,531.2
2018-11-28T10:07:36.250Z,531.1
2018-11-28T10:08:38.680Z,531.5
2018-11-28T10:09:41.112Z,531.9
2018-11-28T10:10:43.528Z,531.7
2018-11-28T10:11:45.688Z,531.4
2018-11-28T10:12:47.828Z,531.5
2018-11-28T10:13:50.256Z,531.7
2018-11-28T10:14:52.673Z,531.5
2018-11-28T10:15:55.088Z,531.5
2018-11-28T10:16:59.101Z,531.5
2018-11-28T10:18:01.260Z,531.2
2018-11-28T10:19:03.685Z,531.4
2018-11-28T10:20:06.122Z,531.3
2018-11-28T10:21:08.290Z,531.6
2018-11-28T10:22:10.158Z,531.5
2018-11-28T10:23:12.599Z,531.7
2018-11-28T10:24:15.027Z,531.9
2018-11-28T10:25:17.451Z,531.9
2018-11-28T10:26:19.881Z,532.3
2018-11-28T10:27:22.305Z,532.2
2018-11-28T10:28:24.730Z,532.3
2018-11-28T10:29:27.168Z,532.6
2018-11-28T10:30:31.112Z,532.4
2018-11-28T10:31:33.550Z,532.5
2018-11-28T10:32:35.701Z,532.7
2018-11-28T10:33:38.159Z,532.4
2018-11-28T10:34:40.591Z,532.6
2018-11-28T10:35:43.014Z,533
2018-11-28T10:36:45.435Z,532.9
2018-11-28T10:37:47.688Z,533
2018-11-28T10:38:50.120Z,533.3
2018-11-28T10:39:52.268Z,533.3
2018-11-28T10:40:54.699Z,533.5
2018-11-28T10:41:56.587Z,533.1
2018-11-28T10:42:58.463Z,533.7
2018-11-28T10:44:00.598Z,533.8
2018-11-28T10:45:03.021Z,533.5
2018-11-28T10:46:05.175Z,533.6
2018-11-28T10:47:07.618Z,533.9
2018-11-28T10:48:09.772Z,533.9
2018-11-28T10:49:11.940Z,534.1
2018-11-28T10:50:14.377Z,534
2018-11-28T10:51:16.800Z,534
2018-11-28T10:52:18.944Z,534
2018-11-28T10:53:21.386Z,533.7
2018-11-28T10:54:23.538Z,533.6
2018-11-28T10:55:25.691Z,533.4
2018-11-28T10:56:27.858Z,533.3
2018-11-28T10:57:30.298Z,533.3
2018-11-28T10:58:32.551Z,532.9
2018-11-28T10:59:34.988Z,533
2018-11-28T11:00:37.413Z,533.3
2018-11-28T11:01:39.556Z,533
2018-11-28T11:02:41.719Z,533.1
2018-11-28T11:03:43.053Z,533.3
2018-11-28T11:04:47.018Z,534.1
2018-11-28T11:05:49.446Z,533.4
2018-11-28T11:06:51.896Z,533.7
2018-11-28T11:07:54.318Z,533
2018-11-28T11:08:56.489Z,533.3
2018-11-28T11:09:58.923Z,533
2018-11-28T11:11:01.099Z,533.6
2018-11-28T11:12:02.711Z,533.2
2018-11-28T11:13:04.874Z,533.3
2018-11-28T11:14:07.024Z,532.9
2018-11-28T11:15:09.464Z,532.9
2018-11-28T11:16:11.639Z,533.1
2018-11-28T11:17:13.769Z,532.9
2018-11-28T11:18:16.241Z,532.7
2018-11-28T11:19:18.452Z,532.5
2018-11-28T11:20:20.889Z,532.6
2018-11-28T11:21:23.314Z,532.9
2018-11-28T11:22:25.737Z,532.5
2018-11-28T11:23:27.622Z,532.5
2018-11-28T11:24:30.062Z,532.8
2018-11-28T11:25:32.515Z,533
2018-11-28T11:26:34.951Z,533
2018-11-28T11:27:37.389Z,533.2
2018-11-28T11:28:39.834Z,533.5
2018-11-28T11:29:42.590Z,533.6
2018-11-28T11:30:45.076Z,533.6
2018-11-28T11:31:47.516Z,534
2018-11-28T11:32:50.036Z,534.4
2018-11-28T11:33:52.459Z,534.8
2018-11-28T11:34:54.627Z,535
2018-11-28T11:35:56.799Z,534.9
2018-11-28T11:36:59.247Z,535.2
2018-11-28T11:38:01.690Z,535.1
2018-11-28T11:39:04.114Z,534.9
2018-11-28T11:40:05.700Z,535.5
2018-11-28T11:41:08.137Z,535.1
2018-11-28T11:42:10.589Z,534.9
2018-11-28T11:43:13.030Z,534.7
2018-11-28T11:44:15.482Z,535.1
2018-11-28T11:45:17.649Z,534.5
2018-11-28T11:46:19.519Z,534.2
2018-11-28T11:47:21.965Z,534.4
2018-11-28T11:48:24.388Z,534.3
2018-11-28T11:49:26.822Z,534.3
2018-11-28T11:50:29.256Z,533.8
2018-11-28T11:51:31.719Z,534.5
2018-11-28T11:52:34.238Z,534.6
2018-11-28T11:53:36.666Z,534
2018-11-28T11:54:38.814Z,533.9
2018-11-28T11:55:41.024Z,534
2018-11-28T11:56:43.232Z,533.9
2018-11-28T11:57:45.659Z,534.1
2018-11-28T11:58:48.139Z,534.2
2018-11-28T11:59:50.567Z,533.8
2018-11-28T12:00:52.481Z,534.4
2018-11-28T12:01:56.857Z,534.2
2018-11-28T12:02:59.278Z,533.8
2018-11-28T12:04:01.464Z,534.7
2018-11-28T12:05:03.369Z,534.8
2018-11-28T12:06:05.530Z,534.9
2018-11-28T12:07:07.682Z,534.7
2018-11-28T12:08:09.885Z,534.9
2018-11-28T12:09:12.063Z,535.2
2018-11-28T12:10:14.491Z,535.2
2018-11-28T12:11:16.644Z,535.2
2018-11-28T12:12:19.089Z,535.6
2018-11-28T12:13:21.519Z,535.3
2018-11-28T12:14:23.696Z,535.6
2018-11-28T12:15:26.127Z,535.8
2018-11-28T12:16:28.278Z,535.9
2018-11-28T12:17:30.710Z,536.1
2018-11-28T12:18:33.303Z,536.4
2018-11-28T12:19:35.730Z,536
2018-11-28T12:20:37.889Z,536
2018-11-28T12:21:40.047Z,536.3
2018-11-28T12:22:42.481Z,536.3
2018-11-28T12:23:44.842Z,536.4
2018-11-28T12:24:47.446Z,536.7
2018-11-28T12:25:49.594Z,536.8
2018-11-28T12:26:51.766Z,536.4
2018-11-28T12:27:54.208Z,536.2
2018-11-28T12:28:56.657Z,536.6
2018-11-28T12:29:59.092Z,536.2
2018-11-28T12:31:01.226Z,536.1
2018-11-28T12:32:03.385Z,536.1
2018-11-28T12:33:05.818Z,535.9
2018-11-28T12:34:08.255Z,536.5
2018-11-28T12:35:10.403Z,536.4
2018-11-28T12:36:12.825Z,536.7
2018-11-28T12:37:14.986Z,537.1
2018-11-28T12:38:17.154Z,536.9
2018-11-28T12:40:22.764Z,536.8
2018-11-28T12:41:25.200Z,537
2018-11-28T12:42:27.640Z,536.9
2018-11-28T12:43:31.167Z,537.3
2018-11-28T12:44:33.600Z,537.3
2018-11-28T12:45:36.030Z,537.2
2018-11-28T12:46:38.462Z,536.9
2018-11-28T12:47:40.910Z,537
2018-11-28T12:48:43.070Z,537.1
2018-11-28T12:49:45.497Z,536.8
2018-11-28T12:50:47.938Z,537.1
2018-11-28T12:51:50.378Z,536.4
2018-11-28T12:52:52.798Z,536.6
2018-11-28T12:53:55.241Z,536.9
2018-11-28T12:54:57.411Z,536.9
2018-11-28T12:55:59.866Z,537
2018-11-28T12:57:02.294Z,537.1
2018-11-28T12:58:04.752Z,537.1
2018-11-28T12:59:07.197Z,537.3
2018-11-28T13:00:09.351Z,537
2018-11-28T13:01:11.779Z,537.2
2018-11-28T13:02:14.210Z,537.3
2018-11-28T13:03:16.661Z,537
2018-11-28T13:04:19.098Z,537.5
2018-11-28T13:05:21.532Z,537.3
2018-11-28T13:06:23.972Z,537.1
2018-11-28T13:07:27.291Z,537.4
2018-11-28T13:08:29.736Z,537.3
2018-11-28T13:09:31.639Z,537
2018-11-28T13:10:33.788Z,537.1
2018-11-28T13:11:35.956Z,537.4
2018-11-28T13:12:38.104Z,536.8
2018-11-28T13:13:40.571Z,537.4
2018-11-28T13:14:43.017Z,537.3
2018-11-28T13:15:45.462Z,537.3
2018-11-28T13:16:47.371Z,537.3
2018-11-28T13:17:49.531Z,537.1
2018-11-28T13:18:51.985Z,537.8
2018-11-28T13:21:00.113Z,537.3
2018-11-28T13:22:02.546Z,537.4
2018-11-28T13:23:04.980Z,536.8
2018-11-28T13:24:07.162Z,536.9
2018-11-28T13:25:09.314Z,536.9
2018-11-28T13:26:11.754Z,536.7
2018-11-28T13:27:13.331Z,536.7
2018-11-28T13:28:15.462Z,537.1
2018-11-28T13:29:17.340Z,536.8
2018-11-28T13:30:19.774Z,537
2018-11-28T13:31:22.201Z,536.8